Impacts TAF Board
For situational awareness. Not to be used for flight planning purposes.
IDs:

KSAT - San Antonio Intl, TX, US

Issued at 1140 UTC 19 Feb 2020
Updated at 1232 UTC 19 Feb 2020
Potential Impact None Slight Moderate High
Time1204Z 19/13Z 19/14Z 19/15Z 19/16Z 19/17Z 19/18Z 19/19Z 19/20Z 19/21Z 19/22Z 19/23Z 20/00Z 20/01Z>>
Type OBS PRVL PRVL PRVL PRVL PRVL PRVL PRVL PRVL PRVL PRVL PRVL PRVL PRVL
VIS 10 >6 >6 5 5 5 5 5 5 5 5 5 5 2
CIG 14 12 12 7 7 7 7 7 7 7 7 7 7 4
Cover OVC OVC OVC OVC OVC OVC OVC OVC OVC OVC OVC OVC OVC OVC
FltCat MVFR MVFR MVFR IFR IFR IFR IFR IFR IFR IFR IFR IFR IFR LIFR
WX -RA -RA -RA -RA BR -RA BR -RA BR -RA BR -RA BR -RA BR -RA BR -RA BR -RA BR -RA BR -RA BR
WDir 20 10 10 10 10 10 10 10 10 10 10 10 10 20
WSpd 13 12 12 12 12 12 12 12 12 12 12 12 12 9
WGst 19 -- -- -- -- -- -- -- -- -- -- -- -- --
R04/22
XWnd 5 6 6 6 6 6 6 6 6 6 6 6 6 3
XGst 7 -- -- -- -- -- -- -- -- -- -- -- -- --
HWnd 12 10 10 10 10 10 10 10 10 10 10 10 10 8
HGst 18 -- -- -- -- -- -- -- -- -- -- -- -- --
R12/30
XWnd 12 10 10 10 10 10 10 10 10 10 10 10 10 8
XGst 18 -- -- -- -- -- -- -- -- -- -- -- -- --
HWnd -5 -6 -6 -6 -6 -6 -6 -6 -6 -6 -6 -6 -6 -3
HGst -7 -- -- -- -- -- -- -- -- -- -- -- -- --
Raw TAF
KSAT 191140Z 1912/2018 01012KT P6SM -RA OVC012
  FM191500 01012KT 5SM -RA BR OVC007
  FM200100 02009KT 2SM -RA BR OVC004
  FM201000 02010KT 5SM -RA BR OVC006
  FM201500 02015KT P6SM OVC012


Raw METAR
KSAT 191204Z 02013G19KT 10SM -RA OVC014 10/06 A3020 RMK AO2 P0000 T01000061
KSAT 191151Z 01010G19KT 10SM -RA OVC015 10/07 A3019 RMK AO2 RAB49 SLP214 P0000 60000 T01000067 10117 20100 51008
KSAT 191051Z 01012G18KT 10SM OVC015 11/07 A3018 RMK AO2 SLP210 T01060067
KSAT 190951Z 01012G23KT 10SM OVC016 11/06 A3017 RMK AO2 RAE50 SLP206 P0000 T01110056

METAR Board
Radar Display
Forecast Discussion
For situational awareness. Not to be used for flight planning purposes.